sensor_id;sensor_type;location;lat;lon;timestamp;temperature;humidity
26599;DHT22;14240;51.064;16.612;2023-04-25T00:01:11;9.80;99.90
26599;DHT22;14240;51.064;16.612;2023-04-25T00:03:39;9.80;99.90
26599;DHT22;14240;51.064;16.612;2023-04-25T00:06:06;9.80;99.90
26599;DHT22;14240;51.064;16.612;2023-04-25T00:08:32;9.80;99.90
26599;DHT22;14240;51.064;16.612;2023-04-25T00:10:58;9.70;99.90
26599;DHT22;14240;51.064;16.612;2023-04-25T00:13:25;9.70;99.90
26599;DHT22;14240;51.064;16.612;2023-04-25T00:15:51;9.70;99.90
26599;DHT22;14240;51.064;16.612;2023-04-25T00:18:21;9.70;99.90
26599;DHT22;14240;51.064;16.612;2023-04-25T00:20:47;9.70;99.90
26599;DHT22;14240;51.064;16.612;2023-04-25T00:23:14;9.70;99.90
26599;DHT22;14240;51.064;16.612;2023-04-25T00:25:47;9.60;99.90
26599;DHT22;14240;51.064;16.612;2023-04-25T00:28:14;9.60;99.90
26599;DHT22;14240;51.064;16.612;2023-04-25T00:30:41;9.60;99.90
26599;DHT22;14240;51.064;16.612;2023-04-25T00:33:07;9.60;99.90
26599;DHT22;14240;51.064;16.612;2023-04-25T00:35:33;9.60;99.90
26599;DHT22;14240;51.064;16.612;2023-04-25T00:38:00;9.60;99.90
26599;DHT22;14240;51.064;16.612;2023-04-25T00:40:26;9.60;99.90
26599;DHT22;14240;51.064;16.612;2023-04-25T00:42:52;9.50;99.90
26599;DHT22;14240;51.064;16.612;2023-04-25T00:45:18;9.50;99.90
26599;DHT22;14240;51.064;16.612;2023-04-25T00:47:44;9.50;99.90
26599;DHT22;14240;51.064;16.612;2023-04-25T00:50:11;9.50;99.90
26599;DHT22;14240;51.064;16.612;2023-04-25T00:52:39;9.40;99.90
26599;DHT22;14240;51.064;16.612;2023-04-25T00:55:06;9.40;99.90
26599;DHT22;14240;51.064;16.612;2023-04-25T00:57:32;9.40;99.90
26599;DHT22;14240;51.064;16.612;2023-04-25T00:59:59;9.30;99.90
26599;DHT22;14240;51.064;16.612;2023-04-25T01:02:25;9.30;99.90
26599;DHT22;14240;51.064;16.612;2023-04-25T01:04:52;9.20;99.90
26599;DHT22;14240;51.064;16.612;2023-04-25T01:07:18;9.20;99.90
26599;DHT22;14240;51.064;16.612;2023-04-25T01:09:44;9.20;99.90
26599;DHT22;14240;51.064;16.612;2023-04-25T01:12:10;9.20;99.90
26599;DHT22;14240;51.064;16.612;2023-04-25T01:14:36;9.20;99.90
26599;DHT22;14240;51.064;16.612;2023-04-25T01:17:02;9.20;99.90
26599;DHT22;14240;51.064;16.612;2023-04-25T01:19:28;9.10;99.90
26599;DHT22;14240;51.064;16.612;2023-04-25T01:21:54;9.10;99.90
26599;DHT22;14240;51.064;16.612;2023-04-25T01:24:20;9.10;99.90
26599;DHT22;14240;51.064;16.612;2023-04-25T01:26:46;9.10;99.90
26599;DHT22;14240;51.064;16.612;2023-04-25T01:29:17;9.00;99.90
26599;DHT22;14240;51.064;16.612;2023-04-25T01:31:43;9.00;99.90
26599;DHT22;14240;51.064;16.612;2023-04-25T01:34:09;9.00;99.90
26599;DHT22;14240;51.064;16.612;2023-04-25T01:36:35;9.00;99.90
26599;DHT22;14240;51.064;16.612;2023-04-25T01:39:01;8.90;99.90
26599;DHT22;14240;51.064;16.612;2023-04-25T01:41:27;8.90;99.90
26599;DHT22;14240;51.064;16.612;2023-04-25T01:43:54;8.90;99.90
26599;DHT22;14240;51.064;16.612;2023-04-25T01:46:19;8.90;99.90
26599;DHT22;14240;51.064;16.612;2023-04-25T01:48:46;8.80;99.90
26599;DHT22;14240;51.064;16.612;2023-04-25T01:51:12;8.80;99.90
26599;DHT22;14240;51.064;16.612;2023-04-25T01:53:38;8.80;99.90
26599;DHT22;14240;51.064;16.612;2023-04-25T01:56:05;8.80;99.90
26599;DHT22;14240;51.064;16.612;2023-04-25T01:58:31;8.80;99.90
26599;DHT22;14240;51.064;16.612;2023-04-25T02:00:56;8.80;99.90
26599;DHT22;14240;51.064;16.612;2023-04-25T02:03:22;8.70;99.90
26599;DHT22;14240;51.064;16.612;2023-04-25T02:05:48;8.70;99.90
26599;DHT22;14240;51.064;16.612;2023-04-25T02:08:14;8.70;99.90
26599;DHT22;14240;51.064;16.612;2023-04-25T02:10:40;8.70;99.90
26599;DHT22;14240;51.064;16.612;2023-04-25T02:13:05;8.60;99.90
26599;DHT22;14240;51.064;16.612;2023-04-25T02:15:31;8.60;99.90
26599;DHT22;14240;51.064;16.612;2023-04-25T02:17:57;8.60;99.90
26599;DHT22;14240;51.064;16.612;2023-04-25T02:20:24;8.60;99.90
26599;DHT22;14240;51.064;16.612;2023-04-25T02:22:50;8.60;99.90
26599;DHT22;14240;51.064;16.612;2023-04-25T02:25:18;8.50;99.90
26599;DHT22;14240;51.064;16.612;2023-04-25T02:27:45;8.50;99.90
26599;DHT22;14240;51.064;16.612;2023-04-25T02:30:12;8.50;99.90
26599;DHT22;14240;51.064;16.612;2023-04-25T02:32:39;8.50;99.90
26599;DHT22;14240;51.064;16.612;2023-04-25T02:35:05;8.50;99.90
26599;DHT22;14240;51.064;16.612;2023-04-25T02:37:32;8.40;99.90
26599;DHT22;14240;51.064;16.612;2023-04-25T02:39:58;8.40;99.90
26599;DHT22;14240;51.064;16.612;2023-04-25T02:42:24;8.40;99.90
26599;DHT22;14240;51.064;16.612;2023-04-25T02:44:49;8.40;99.90
26599;DHT22;14240;51.064;16.612;2023-04-25T02:47:15;8.40;99.90
26599;DHT22;14240;51.064;16.612;2023-04-25T02:49:41;8.30;99.90
26599;DHT22;14240;51.064;16.612;2023-04-25T02:52:07;8.30;99.90
26599;DHT22;14240;51.064;16.612;2023-04-25T02:54:33;8.30;99.90
26599;DHT22;14240;51.064;16.612;2023-04-25T02:56:58;8.30;99.90
26599;DHT22;14240;51.064;16.612;2023-04-25T02:59:24;8.30;99.90
26599;DHT22;14240;51.064;16.612;2023-04-25T03:01:50;8.30;99.90
26599;DHT22;14240;51.064;16.612;2023-04-25T03:04:16;8.30;99.90
26599;DHT22;14240;51.064;16.612;2023-04-25T03:06:41;8.30;99.90
26599;DHT22;14240;51.064;16.612;2023-04-25T03:09:07;8.30;99.90
26599;DHT22;14240;51.064;16.612;2023-04-25T03:11:33;8.20;99.90
26599;DHT22;14240;51.064;16.612;2023-04-25T03:13:58;8.20;99.90
26599;DHT22;14240;51.064;16.612;2023-04-25T03:16:24;8.20;99.90
26599;DHT22;14240;51.064;16.612;2023-04-25T03:18:50;8.20;99.90
26599;DHT22;14240;51.064;16.612;2023-04-25T03:21:16;8.20;99.90
26599;DHT22;14240;51.064;16.612;2023-04-25T03:23:42;8.20;99.90
26599;DHT22;14240;51.064;16.612;2023-04-25T03:26:08;8.10;99.90
26599;DHT22;14240;51.064;16.612;2023-04-25T03:28:34;8.10;99.90
26599;DHT22;14240;51.064;16.612;2023-04-25T03:30:59;8.20;99.90
26599;DHT22;14240;51.064;16.612;2023-04-25T03:33:25;8.20;99.90
26599;DHT22;14240;51.064;16.612;2023-04-25T03:35:51;8.20;99.90
26599;DHT22;14240;51.064;16.612;2023-04-25T03:38:17;8.10;99.90
26599;DHT22;14240;51.064;16.612;2023-04-25T03:40:43;8.10;99.90
26599;DHT22;14240;51.064;16.612;2023-04-25T03:43:08;8.10;99.90
26599;DHT22;14240;51.064;16.612;2023-04-25T03:45:34;8.10;99.90
26599;DHT22;14240;51.064;16.612;2023-04-25T03:48:00;8.10;99.90
26599;DHT22;14240;51.064;16.612;2023-04-25T03:50:26;8.10;99.90
26599;DHT22;14240;51.064;16.612;2023-04-25T03:52:51;8.10;99.90
26599;DHT22;14240;51.064;16.612;2023-04-25T03:55:17;8.00;99.90
26599;DHT22;14240;51.064;16.612;2023-04-25T03:57:44;8.00;99.90
26599;DHT22;14240;51.064;16.612;2023-04-25T04:00:10;8.00;99.90
26599;DHT22;14240;51.064;16.612;2023-04-25T04:02:36;8.00;99.90
26599;DHT22;14240;51.064;16.612;2023-04-25T04:05:03;8.00;99.90
26599;DHT22;14240;51.064;16.612;2023-04-25T04:07:29;8.00;99.90
26599;DHT22;14240;51.064;16.612;2023-04-25T04:09:55;8.00;99.90
26599;DHT22;14240;51.064;16.612;2023-04-25T04:12:22;8.00;99.90
26599;DHT22;14240;51.064;16.612;2023-04-25T04:14:47;8.00;99.90
26599;DHT22;14240;51.064;16.612;2023-04-25T04:17:13;8.00;99.90
26599;DHT22;14240;51.064;16.612;2023-04-25T04:19:39;8.00;99.90
26599;DHT22;14240;51.064;16.612;2023-04-25T04:22:04;8.10;99.90
26599;DHT22;14240;51.064;16.612;2023-04-25T04:24:30;8.00;99.90
26599;DHT22;14240;51.064;16.612;2023-04-25T04:26:56;8.00;99.90
26599;DHT22;14240;51.064;16.612;2023-04-25T04:29:22;8.10;99.90
26599;DHT22;14240;51.064;16.612;2023-04-25T04:31:49;8.10;99.90
26599;DHT22;14240;51.064;16.612;2023-04-25T04:34:15;8.10;99.90
26599;DHT22;14240;51.064;16.612;2023-04-25T04:36:42;8.10;99.90
26599;DHT22;14240;51.064;16.612;2023-04-25T04:39:07;8.10;99.90
26599;DHT22;14240;51.064;16.612;2023-04-25T04:41:34;8.10;99.90
26599;DHT22;14240;51.064;16.612;2023-04-25T04:44:00;8.10;99.90
26599;DHT22;14240;51.064;16.612;2023-04-25T04:46:26;8.10;99.90
26599;DHT22;14240;51.064;16.612;2023-04-25T04:48:53;8.10;99.90
26599;DHT22;14240;51.064;16.612;2023-04-25T04:51:19;8.20;99.90
26599;DHT22;14240;51.064;16.612;2023-04-25T04:53:46;8.20;99.90
26599;DHT22;14240;51.064;16.612;2023-04-25T04:56:11;8.20;99.90
26599;DHT22;14240;51.064;16.612;2023-04-25T04:58:37;9.30;99.90
26599;DHT22;14240;51.064;16.612;2023-04-25T05:01:03;8.30;99.90
26599;DHT22;14240;51.064;16.612;2023-04-25T05:03:29;8.30;99.90
26599;DHT22;14240;51.064;16.612;2023-04-25T05:05:54;8.30;99.90
26599;DHT22;14240;51.064;16.612;2023-04-25T05:08:20;8.30;99.90
26599;DHT22;14240;51.064;16.612;2023-04-25T05:10:46;8.30;99.90
26599;DHT22;14240;51.064;16.612;2023-04-25T05:13:12;8.40;99.90
26599;DHT22;14240;51.064;16.612;2023-04-25T05:15:37;8.40;99.90
26599;DHT22;14240;51.064;16.612;2023-04-25T05:18:03;8.40;99.90
26599;DHT22;14240;51.064;16.612;2023-04-25T05:20:29;8.50;99.90
26599;DHT22;14240;51.064;16.612;2023-04-25T05:22:55;8.50;99.90
26599;DHT22;14240;51.064;16.612;2023-04-25T05:25:21;8.60;99.90
26599;DHT22;14240;51.064;16.612;2023-04-25T05:27:46;8.60;99.90
26599;DHT22;14240;51.064;16.612;2023-04-25T05:30:12;8.70;99.90
26599;DHT22;14240;51.064;16.612;2023-04-25T05:32:38;8.70;99.90
26599;DHT22;14240;51.064;16.612;2023-04-25T05:35:04;8.70;99.90
26599;DHT22;14240;51.064;16.612;2023-04-25T05:37:32;8.70;99.90
26599;DHT22;14240;51.064;16.612;2023-04-25T05:39:58;8.80;99.90
26599;DHT22;14240;51.064;16.612;2023-04-25T05:42:24;8.80;99.90
26599;DHT22;14240;51.064;16.612;2023-04-25T05:44:49;8.90;99.90
26599;DHT22;14240;51.064;16.612;2023-04-25T05:47:15;9.00;99.90
26599;DHT22;14240;51.064;16.612;2023-04-25T05:49:41;9.10;99.90
26599;DHT22;14240;51.064;16.612;2023-04-25T05:52:06;9.20;99.90
26599;DHT22;14240;51.064;16.612;2023-04-25T05:54:32;9.30;99.90
26599;DHT22;14240;51.064;16.612;2023-04-25T05:56:58;9.40;99.90
26599;DHT22;14240;51.064;16.612;2023-04-25T05:59:23;9.50;99.90
26599;DHT22;14240;51.064;16.612;2023-04-25T06:01:49;9.60;99.90
26599;DHT22;14240;51.064;16.612;2023-04-25T06:04:15;9.70;99.90
26599;DHT22;14240;51.064;16.612;2023-04-25T06:06:41;9.80;99.90
26599;DHT22;14240;51.064;16.612;2023-04-25T06:09:06;9.90;99.90
26599;DHT22;14240;51.064;16.612;2023-04-25T06:11:32;10.00;99.90
26599;DHT22;14240;51.064;16.612;2023-04-25T06:13:58;10.00;99.90
26599;DHT22;14240;51.064;16.612;2023-04-25T06:16:24;10.10;99.90
26599;DHT22;14240;51.064;16.612;2023-04-25T06:18:51;10.20;99.90
26599;DHT22;14240;51.064;16.612;2023-04-25T06:21:17;10.30;99.90
26599;DHT22;14240;51.064;16.612;2023-04-25T06:23:42;10.30;99.90
26599;DHT22;14240;51.064;16.612;2023-04-25T06:26:08;10.40;99.90
26599;DHT22;14240;51.064;16.612;2023-04-25T06:28:34;10.50;99.90
26599;DHT22;14240;51.064;16.612;2023-04-25T06:31:00;10.60;99.90
26599;DHT22;14240;51.064;16.612;2023-04-25T06:33:25;10.70;99.90
26599;DHT22;14240;51.064;16.612;2023-04-25T06:35:52;10.80;99.90
26599;DHT22;14240;51.064;16.612;2023-04-25T06:38:18;10.90;99.90
26599;DHT22;14240;51.064;16.612;2023-04-25T06:40:43;11.10;99.90
26599;DHT22;14240;51.064;16.612;2023-04-25T06:43:09;11.20;99.90
26599;DHT22;14240;51.064;16.612;2023-04-25T06:45:35;11.30;99.90
26599;DHT22;14240;51.064;16.612;2023-04-25T06:48:01;11.50;99.90
26599;DHT22;14240;51.064;16.612;2023-04-25T06:50:26;11.50;99.90
26599;DHT22;14240;51.064;16.612;2023-04-25T06:52:52;11.60;99.90
26599;DHT22;14240;51.064;16.612;2023-04-25T06:55:18;11.70;99.90
26599;DHT22;14240;51.064;16.612;2023-04-25T06:57:44;11.80;99.90
26599;DHT22;14240;51.064;16.612;2023-04-25T07:00:10;12.00;99.90
26599;DHT22;14240;51.064;16.612;2023-04-25T07:02:36;12.20;99.90
26599;DHT22;14240;51.064;16.612;2023-04-25T07:05:02;12.40;99.90
26599;DHT22;14240;51.064;16.612;2023-04-25T07:07:30;12.60;99.90
26599;DHT22;14240;51.064;16.612;2023-04-25T07:09:56;12.90;99.90
26599;DHT22;14240;51.064;16.612;2023-04-25T07:12:22;13.20;99.90
26599;DHT22;14240;51.064;16.612;2023-04-25T07:14:47;13.40;99.90
26599;DHT22;14240;51.064;16.612;2023-04-25T07:17:13;13.70;99.90
26599;DHT22;14240;51.064;16.612;2023-04-25T07:19:39;13.90;99.90
26599;DHT22;14240;51.064;16.612;2023-04-25T07:22:06;14.10;99.90
26599;DHT22;14240;51.064;16.612;2023-04-25T07:24:32;14.40;99.90
26599;DHT22;14240;51.064;16.612;2023-04-25T07:26:58;14.60;99.90
26599;DHT22;14240;51.064;16.612;2023-04-25T07:29:24;14.80;99.90
26599;DHT22;14240;51.064;16.612;2023-04-25T07:31:49;15.00;99.90
26599;DHT22;14240;51.064;16.612;2023-04-25T07:34:15;15.10;99.90
26599;DHT22;14240;51.064;16.612;2023-04-25T07:36:41;15.30;99.90
26599;DHT22;14240;51.064;16.612;2023-04-25T07:39:07;15.40;99.90
26599;DHT22;14240;51.064;16.612;2023-04-25T07:41:34;15.50;99.90
26599;DHT22;14240;51.064;16.612;2023-04-25T07:44:00;15.60;99.90
26599;DHT22;14240;51.064;16.612;2023-04-25T07:46:26;15.60;99.90
26599;DHT22;14240;51.064;16.612;2023-04-25T07:48:52;15.70;99.90
26599;DHT22;14240;51.064;16.612;2023-04-25T07:51:17;15.70;99.90
26599;DHT22;14240;51.064;16.612;2023-04-25T07:53:45;15.70;99.90
26599;DHT22;14240;51.064;16.612;2023-04-25T07:56:11;15.80;99.90
26599;DHT22;14240;51.064;16.612;2023-04-25T07:58:40;15.90;99.90
26599;DHT22;14240;51.064;16.612;2023-04-25T08:01:05;16.10;99.90
26599;DHT22;14240;51.064;16.612;2023-04-25T08:03:31;16.20;99.90
26599;DHT22;14240;51.064;16.612;2023-04-25T08:05:57;16.50;99.90
26599;DHT22;14240;51.064;16.612;2023-04-25T08:08:23;16.80;99.90
26599;DHT22;14240;51.064;16.612;2023-04-25T08:10:51;16.90;99.90
26599;DHT22;14240;51.064;16.612;2023-04-25T08:13:16;17.10;99.90
26599;DHT22;14240;51.064;16.612;2023-04-25T08:15:42;17.20;99.90
26599;DHT22;14240;51.064;16.612;2023-04-25T08:18:11;17.30;99.90
26599;DHT22;14240;51.064;16.612;2023-04-25T08:20:36;17.30;99.90
26599;DHT22;14240;51.064;16.612;2023-04-25T08:23:02;17.20;99.90
26599;DHT22;14240;51.064;16.612;2023-04-25T08:25:28;17.20;99.90
26599;DHT22;14240;51.064;16.612;2023-04-25T08:27:53;17.00;99.90
26599;DHT22;14240;51.064;16.612;2023-04-25T08:30:20;16.80;99.90
26599;DHT22;14240;51.064;16.612;2023-04-25T08:32:46;16.60;99.90
26599;DHT22;14240;51.064;16.612;2023-04-25T08:35:12;16.50;99.90
26599;DHT22;14240;51.064;16.612;2023-04-25T08:37:37;16.50;99.90
26599;DHT22;14240;51.064;16.612;2023-04-25T08:40:04;16.70;99.90
26599;DHT22;14240;51.064;16.612;2023-04-25T08:42:33;16.70;99.90
26599;DHT22;14240;51.064;16.612;2023-04-25T08:45:00;16.80;99.90
26599;DHT22;14240;51.064;16.612;2023-04-25T08:47:30;16.60;99.90
26599;DHT22;14240;51.064;16.612;2023-04-25T08:49:58;16.40;99.90
26599;DHT22;14240;51.064;16.612;2023-04-25T08:52:28;16.20;99.90
26599;DHT22;14240;51.064;16.612;2023-04-25T08:54:57;16.00;99.90
26599;DHT22;14240;51.064;16.612;2023-04-25T08:57:23;15.90;99.90
26599;DHT22;14240;51.064;16.612;2023-04-25T08:59:49;15.80;99.90
26599;DHT22;14240;51.064;16.612;2023-04-25T09:02:17;15.70;99.90
26599;DHT22;14240;51.064;16.612;2023-04-25T09:04:45;15.60;99.90
26599;DHT22;14240;51.064;16.612;2023-04-25T09:07:11;15.50;99.90
26599;DHT22;14240;51.064;16.612;2023-04-25T09:09:37;15.50;99.90
26599;DHT22;14240;51.064;16.612;2023-04-25T09:12:03;15.60;99.90
26599;DHT22;14240;51.064;16.612;2023-04-25T09:14:28;15.70;99.90
26599;DHT22;14240;51.064;16.612;2023-04-25T09:19:32;15.90;99.90
26599;DHT22;14240;51.064;16.612;2023-04-25T09:22:00;15.80;99.20
26599;DHT22;14240;51.064;16.612;2023-04-25T09:24:36;15.70;99.20
26599;DHT22;14240;51.064;16.612;2023-04-25T09:27:04;15.60;98.90
26599;DHT22;14240;51.064;16.612;2023-04-25T09:29:35;15.70;99.60
26599;DHT22;14240;51.064;16.612;2023-04-25T09:32:20;15.90;99.70
26599;DHT22;14240;51.064;16.612;2023-04-25T09:34:48;16.10;99.00
26599;DHT22;14240;51.064;16.612;2023-04-25T09:39:49;16.20;98.30
26599;DHT22;14240;51.064;16.612;2023-04-25T09:42:15;16.10;98.60
26599;DHT22;14240;51.064;16.612;2023-04-25T09:44:43;16.10;99.10
26599;DHT22;14240;51.064;16.612;2023-04-25T09:47:10;16.20;98.90
26599;DHT22;14240;51.064;16.612;2023-04-25T09:49:39;16.30;98.80
26599;DHT22;14240;51.064;16.612;2023-04-25T09:52:06;16.40;98.80
26599;DHT22;14240;51.064;16.612;2023-04-25T09:54:32;16.50;98.50
26599;DHT22;14240;51.064;16.612;2023-04-25T09:57:08;16.60;97.80
26599;DHT22;14240;51.064;16.612;2023-04-25T09:59:38;16.60;98.00
26599;DHT22;14240;51.064;16.612;2023-04-25T10:02:07;16.60;97.20
26599;DHT22;14240;51.064;16.612;2023-04-25T10:04:34;16.40;96.60
26599;DHT22;14240;51.064;16.612;2023-04-25T10:07:03;16.30;97.30
26599;DHT22;14240;51.064;16.612;2023-04-25T10:09:32;16.20;96.90
26599;DHT22;14240;51.064;16.612;2023-04-25T10:11:59;16.20;97.10
26599;DHT22;14240;51.064;16.612;2023-04-25T10:14:26;16.20;97.30
26599;DHT22;14240;51.064;16.612;2023-04-25T10:16:53;16.20;97.70
26599;DHT22;14240;51.064;16.612;2023-04-25T10:19:22;16.30;97.50
26599;DHT22;14240;51.064;16.612;2023-04-25T10:24:28;16.40;96.90
26599;DHT22;14240;51.064;16.612;2023-04-25T10:26:54;16.40;97.00
26599;DHT22;14240;51.064;16.612;2023-04-25T10:29:25;16.60;96.80
26599;DHT22;14240;51.064;16.612;2023-04-25T10:31:51;16.60;96.60
26599;DHT22;14240;51.064;16.612;2023-04-25T10:34:18;16.70;96.30
26599;DHT22;14240;51.064;16.612;2023-04-25T10:36:50;16.80;96.00
26599;DHT22;14240;51.064;16.612;2023-04-25T10:39:27;16.80;95.70
26599;DHT22;14240;51.064;16.612;2023-04-25T10:41:56;16.70;95.60
26599;DHT22;14240;51.064;16.612;2023-04-25T10:44:26;16.60;95.70
26599;DHT22;14240;51.064;16.612;2023-04-25T10:46:52;16.50;95.70
26599;DHT22;14240;51.064;16.612;2023-04-25T10:49:37;16.50;95.90
26599;DHT22;14240;51.064;16.612;2023-04-25T10:52:25;16.50;95.60
26599;DHT22;14240;51.064;16.612;2023-04-25T10:54:57;16.40;94.90
26599;DHT22;14240;51.064;16.612;2023-04-25T11:02:31;16.10;94.80
26599;DHT22;14240;51.064;16.612;2023-04-25T11:04:57;16.10;94.80
26599;DHT22;14240;51.064;16.612;2023-04-25T11:07:29;15.90;94.80
26599;DHT22;14240;51.064;16.612;2023-04-25T11:10:02;15.90;95.70
26599;DHT22;14240;51.064;16.612;2023-04-25T11:12:30;15.90;95.30
26599;DHT22;14240;51.064;16.612;2023-04-25T11:15:04;15.90;95.60
26599;DHT22;14240;51.064;16.612;2023-04-25T11:17:31;15.90;95.10
26599;DHT22;14240;51.064;16.612;2023-04-25T11:19:57;15.90;95.10
26599;DHT22;14240;51.064;16.612;2023-04-25T11:22:23;15.80;95.50
26599;DHT22;14240;51.064;16.612;2023-04-25T11:24:48;15.80;95.00
26599;DHT22;14240;51.064;16.612;2023-04-25T11:27:14;15.80;95.30
26599;DHT22;14240;51.064;16.612;2023-04-25T11:29:40;15.90;95.30
26599;DHT22;14240;51.064;16.612;2023-04-25T11:32:07;15.80;95.20
26599;DHT22;14240;51.064;16.612;2023-04-25T11:34:33;15.80;95.40
26599;DHT22;14240;51.064;16.612;2023-04-25T11:37:00;15.80;95.80
26599;DHT22;14240;51.064;16.612;2023-04-25T11:39:27;15.80;96.00
26599;DHT22;14240;51.064;16.612;2023-04-25T11:41:54;15.80;95.50
26599;DHT22;14240;51.064;16.612;2023-04-25T11:44:20;15.70;95.50
26599;DHT22;14240;51.064;16.612;2023-04-25T11:46:47;15.70;95.40
26599;DHT22;14240;51.064;16.612;2023-04-25T11:49:13;15.60;95.50
26599;DHT22;14240;51.064;16.612;2023-04-25T11:51:40;15.60;95.10
26599;DHT22;14240;51.064;16.612;2023-04-25T11:54:06;15.50;94.90
26599;DHT22;14240;51.064;16.612;2023-04-25T11:56:32;15.50;95.10
26599;DHT22;14240;51.064;16.612;2023-04-25T11:58:59;15.50;95.20
26599;DHT22;14240;51.064;16.612;2023-04-25T12:01:29;15.40;95.30
26599;DHT22;14240;51.064;16.612;2023-04-25T12:03:56;15.40;94.90
26599;DHT22;14240;51.064;16.612;2023-04-25T12:06:26;15.30;94.80
26599;DHT22;14240;51.064;16.612;2023-04-25T12:09:00;15.20;95.60
26599;DHT22;14240;51.064;16.612;2023-04-25T12:11:26;15.20;96.00
26599;DHT22;14240;51.064;16.612;2023-04-25T12:13:52;15.30;96.20
26599;DHT22;14240;51.064;16.612;2023-04-25T12:16:19;15.30;95.90
26599;DHT22;14240;51.064;16.612;2023-04-25T12:18:45;15.40;95.70
26599;DHT22;14240;51.064;16.612;2023-04-25T12:21:10;15.50;96.40
26599;DHT22;14240;51.064;16.612;2023-04-25T12:23:38;15.50;96.30
26599;DHT22;14240;51.064;16.612;2023-04-25T12:26:04;15.60;95.90
26599;DHT22;14240;51.064;16.612;2023-04-25T12:28:32;15.50;95.50
26599;DHT22;14240;51.064;16.612;2023-04-25T12:31:05;15.50;95.80
26599;DHT22;14240;51.064;16.612;2023-04-25T12:33:36;15.40;95.60
26599;DHT22;14240;51.064;16.612;2023-04-25T12:36:03;15.20;94.60
26599;DHT22;14240;51.064;16.612;2023-04-25T12:38:37;15.10;94.50
26599;DHT22;14240;51.064;16.612;2023-04-25T12:41:03;14.90;95.10
26599;DHT22;14240;51.064;16.612;2023-04-25T12:43:29;14.80;95.60
26599;DHT22;14240;51.064;16.612;2023-04-25T12:45:55;14.80;95.80
26599;DHT22;14240;51.064;16.612;2023-04-25T12:48:22;14.70;95.50
26599;DHT22;14240;51.064;16.612;2023-04-25T12:50:49;14.70;95.60
26599;DHT22;14240;51.064;16.612;2023-04-25T12:53:20;14.70;95.80
26599;DHT22;14240;51.064;16.612;2023-04-25T12:55:47;14.70;96.20
26599;DHT22;14240;51.064;16.612;2023-04-25T12:58:16;14.70;96.50
26599;DHT22;14240;51.064;16.612;2023-04-25T13:00:42;14.80;96.70
26599;DHT22;14240;51.064;16.612;2023-04-25T13:03:09;14.90;97.00
26599;DHT22;14240;51.064;16.612;2023-04-25T13:05:36;14.90;96.80
26599;DHT22;14240;51.064;16.612;2023-04-25T13:08:02;14.90;96.50
26599;DHT22;14240;51.064;16.612;2023-04-25T13:10:28;15.00;96.60
26599;DHT22;14240;51.064;16.612;2023-04-25T13:12:54;15.00;96.80
26599;DHT22;14240;51.064;16.612;2023-04-25T13:15:20;15.10;96.50
26599;DHT22;14240;51.064;16.612;2023-04-25T13:17:46;15.10;96.30
26599;DHT22;14240;51.064;16.612;2023-04-25T13:20:12;15.10;96.00
26599;DHT22;14240;51.064;16.612;2023-04-25T13:22:39;15.00;96.20
26599;DHT22;14240;51.064;16.612;2023-04-25T13:25:06;15.00;96.60
26599;DHT22;14240;51.064;16.612;2023-04-25T13:27:33;15.00;96.70
26599;DHT22;14240;51.064;16.612;2023-04-25T13:30:04;15.00;96.50
26599;DHT22;14240;51.064;16.612;2023-04-25T13:32:33;15.10;96.20
26599;DHT22;14240;51.064;16.612;2023-04-25T13:35:01;15.10;96.30
26599;DHT22;14240;51.064;16.612;2023-04-25T13:37:27;15.10;96.10
26599;DHT22;14240;51.064;16.612;2023-04-25T13:39:55;15.10;95.80
26599;DHT22;14240;51.064;16.612;2023-04-25T13:42:22;15.10;96.10
26599;DHT22;14240;51.064;16.612;2023-04-25T13:44:48;15.20;96.20
26599;DHT22;14240;51.064;16.612;2023-04-25T13:47:14;15.10;95.30
26599;DHT22;14240;51.064;16.612;2023-04-25T13:49:39;15.00;94.60
26599;DHT22;14240;51.064;16.612;2023-04-25T13:52:05;15.00;95.10
26599;DHT22;14240;51.064;16.612;2023-04-25T13:54:31;15.00;95.40
26599;DHT22;14240;51.064;16.612;2023-04-25T13:56:57;14.90;95.50
26599;DHT22;14240;51.064;16.612;2023-04-25T13:59:24;14.80;95.80
26599;DHT22;14240;51.064;16.612;2023-04-25T14:01:51;14.80;95.70
26599;DHT22;14240;51.064;16.612;2023-04-25T14:04:17;14.70;95.70
26599;DHT22;14240;51.064;16.612;2023-04-25T14:06:43;14.70;95.80
26599;DHT22;14240;51.064;16.612;2023-04-25T14:09:08;14.60;95.80
26599;DHT22;14240;51.064;16.612;2023-04-25T14:11:38;14.60;95.60
26599;DHT22;14240;51.064;16.612;2023-04-25T14:14:04;14.50;95.40
26599;DHT22;14240;51.064;16.612;2023-04-25T14:16:30;14.40;95.60
26599;DHT22;14240;51.064;16.612;2023-04-25T14:18:58;14.40;96.10
26599;DHT22;14240;51.064;16.612;2023-04-25T14:21:24;14.30;96.30
26599;DHT22;14240;51.064;16.612;2023-04-25T14:23:49;14.20;96.20
26599;DHT22;14240;51.064;16.612;2023-04-25T14:26:15;14.10;96.10
26599;DHT22;14240;51.064;16.612;2023-04-25T14:28:41;14.00;96.40
26599;DHT22;14240;51.064;16.612;2023-04-25T14:31:07;14.00;96.70
26599;DHT22;14240;51.064;16.612;2023-04-25T14:33:34;13.90;96.20
26599;DHT22;14240;51.064;16.612;2023-04-25T14:36:00;13.80;96.50
26599;DHT22;14240;51.064;16.612;2023-04-25T14:38:25;13.80;96.50
26599;DHT22;14240;51.064;16.612;2023-04-25T14:40:52;13.70;97.00
26599;DHT22;14240;51.064;16.612;2023-04-25T14:43:19;13.70;97.30
26599;DHT22;14240;51.064;16.612;2023-04-25T14:45:45;13.60;97.60
26599;DHT22;14240;51.064;16.612;2023-04-25T14:48:11;13.60;97.90
26599;DHT22;14240;51.064;16.612;2023-04-25T14:50:36;13.60;98.20
26599;DHT22;14240;51.064;16.612;2023-04-25T14:53:02;13.50;98.30
26599;DHT22;14240;51.064;16.612;2023-04-25T14:55:28;13.50;98.30
26599;DHT22;14240;51.064;16.612;2023-04-25T14:57:54;13.50;98.70
26599;DHT22;14240;51.064;16.612;2023-04-25T15:00:21;13.40;98.80
26599;DHT22;14240;51.064;16.612;2023-04-25T15:02:50;13.40;98.90
26599;DHT22;14240;51.064;16.612;2023-04-25T15:05:16;13.30;99.30
26599;DHT22;14240;51.064;16.612;2023-04-25T15:07:41;13.30;99.80
26599;DHT22;14240;51.064;16.612;2023-04-25T15:10:07;13.30;99.90
26599;DHT22;14240;51.064;16.612;2023-04-25T15:12:44;13.20;99.70
26599;DHT22;14240;51.064;16.612;2023-04-25T15:15:11;13.10;99.80
26599;DHT22;14240;51.064;16.612;2023-04-25T15:17:41;13.10;99.30
26599;DHT22;14240;51.064;16.612;2023-04-25T15:20:09;13.00;99.50
26599;DHT22;14240;51.064;16.612;2023-04-25T15:22:37;13.00;99.70
26599;DHT22;14240;51.064;16.612;2023-04-25T15:25:03;12.90;99.90
26599;DHT22;14240;51.064;16.612;2023-04-25T15:27:29;12.90;99.90
26599;DHT22;14240;51.064;16.612;2023-04-25T15:29:56;12.80;99.70
26599;DHT22;14240;51.064;16.612;2023-04-25T15:32:22;12.80;99.90